createdAt,value
2019-03-28T00:02:30.338Z,36.30
2019-03-28T00:05:44.326Z,31.63
2019-03-28T00:08:58.612Z,31.87
2019-03-28T00:12:12.743Z,30.00
2019-03-28T00:15:26.977Z,37.17
2019-03-28T00:18:42.904Z,30.23
2019-03-28T00:21:57.056Z,32.53
2019-03-28T00:25:12.088Z,33.60
2019-03-28T00:28:26.084Z,40.13
2019-03-28T00:31:40.148Z,40.10
2019-03-28T00:34:54.176Z,40.03
2019-03-28T00:38:08.172Z,34.70
2019-03-28T00:41:22.443Z,41.70
2019-03-28T00:44:36.439Z,41.37
2019-03-28T00:47:50.461Z,40.50
2019-03-28T00:51:04.580Z,39.23
2019-03-28T00:54:18.603Z,44.77
2019-03-28T00:57:32.806Z,37.77
2019-03-28T01:00:46.829Z,38.37
2019-03-28T01:04:00.920Z,34.70
2019-03-28T01:07:16.844Z,48.13
2019-03-28T01:10:30.952Z,45.57
2019-03-28T01:13:45.076Z,43.87
2019-03-28T01:16:59.080Z,39.40
2019-03-28T01:20:13.384Z,38.13
2019-03-28T01:23:27.513Z,46.33
2019-03-28T01:26:41.512Z,47.63
2019-03-28T01:29:55.520Z,50.33
2019-03-28T01:33:09.829Z,69.07
2019-03-28T01:36:23.925Z,48.17
2019-03-28T01:39:38.026Z,45.53
2019-03-28T01:42:52.063Z,46.70
2019-03-28T01:46:06.051Z,44.80
2019-03-28T01:49:20.061Z,45.13
2019-03-28T01:52:34.066Z,46.13
2019-03-28T01:55:48.064Z,46.07
2019-03-28T01:59:02.199Z,45.07
2019-03-28T02:02:16.203Z,55.97
2019-03-28T02:05:30.189Z,48.17
2019-03-28T02:08:44.525Z,48.13
2019-03-28T02:11:58.794Z,59.53
2019-03-28T02:15:13.327Z,57.70
2019-03-28T02:18:27.814Z,55.37
2019-03-28T02:21:41.807Z,57.33
2019-03-28T02:24:56.079Z,56.67
2019-03-28T02:28:10.111Z,50.50
2019-03-28T02:31:24.114Z,50.47
2019-03-28T02:34:38.108Z,47.63
2019-03-28T02:37:52.512Z,54.20
2019-03-28T02:41:06.652Z,57.60
2019-03-28T02:44:21.039Z,56.80
2019-03-28T02:47:35.931Z,47.33
2019-03-28T02:50:50.435Z,57.47
2019-03-28T02:54:05.512Z,61.33
2019-03-28T02:57:19.643Z,59.60
2019-03-28T03:00:33.951Z,62.60
2019-03-28T03:03:47.972Z,58.33
2019-03-28T03:07:01.982Z,52.93
2019-03-28T03:10:15.999Z,63.83
2019-03-28T03:13:30.604Z,61.57
2019-03-28T03:16:44.722Z,59.43
2019-03-28T03:19:58.854Z,66.03
2019-03-28T03:23:13.088Z,60.10
2019-03-28T03:26:27.393Z,59.67
2019-03-28T03:29:41.434Z,68.03
2019-03-28T03:32:55.694Z,64.77
2019-03-28T03:36:09.868Z,60.50
2019-03-28T03:39:24.268Z,61.67
2019-03-28T03:42:38.643Z,71.60
2019-03-28T03:45:52.615Z,63.33
2019-03-28T03:49:06.733Z,71.43
2019-03-28T03:52:20.742Z,64.23
2019-03-28T03:55:34.760Z,65.57
2019-03-28T03:58:48.772Z,59.50
2019-03-28T04:02:03.264Z,60.97
2019-03-28T04:05:17.281Z,61.37
2019-03-28T04:08:31.564Z,56.17
2019-03-28T04:11:45.595Z,58.80
2019-03-28T04:14:59.632Z,59.57
2019-03-28T04:18:13.920Z,66.00
2019-03-28T04:21:28.166Z,69.40
2019-03-28T04:24:42.254Z,65.80
2019-03-28T04:27:56.357Z,64.73
2019-03-28T04:31:10.671Z,59.80
2019-03-28T04:34:24.691Z,75.57
2019-03-28T04:37:38.813Z,59.67
2019-03-28T04:40:52.948Z,64.33
2019-03-28T04:44:07.010Z,69.30
2019-03-28T04:47:21.126Z,65.90
2019-03-28T04:50:35.146Z,63.67
2019-03-28T04:53:49.164Z,59.00
2019-03-28T04:57:04.205Z,64.37
2019-03-28T05:00:18.722Z,71.87
2019-03-28T05:03:33.081Z,68.00
2019-03-28T05:06:47.479Z,73.57
2019-03-28T05:10:01.707Z,67.47
2019-03-28T05:13:15.722Z,65.43
2019-03-28T05:16:29.745Z,68.50
2019-03-28T05:19:43.872Z,75.00
2019-03-28T05:22:57.882Z,71.83
2019-03-28T05:26:12.003Z,75.00
2019-03-28T05:29:26.631Z,74.60
2019-03-28T05:32:41.333Z,77.50
2019-03-28T05:35:55.611Z,98.57
2019-03-28T05:39:09.730Z,80.10
2019-03-28T05:42:23.775Z,83.77
2019-03-28T05:45:37.807Z,84.33
2019-03-28T05:48:51.971Z,76.83
2019-03-28T05:52:06.382Z,76.83
2019-03-28T05:55:20.506Z,77.43
2019-03-28T05:58:34.649Z,72.53
2019-03-28T06:01:48.981Z,82.03
2019-03-28T06:05:03.535Z,82.17
2019-03-28T06:08:17.860Z,75.50
2019-03-28T06:11:32.199Z,82.70
2019-03-28T06:14:46.211Z,91.23
2019-03-28T06:18:00.349Z,71.47
2019-03-28T06:21:14.358Z,78.30
2019-03-28T06:24:28.675Z,81.53
2019-03-28T06:27:43.131Z,79.03
2019-03-28T06:30:57.460Z,79.23
2019-03-28T06:34:12.274Z,91.40
2019-03-28T06:37:26.321Z,80.40
2019-03-28T06:40:40.459Z,87.20
2019-03-28T06:43:54.609Z,71.70
2019-03-28T06:47:09.113Z,82.47
2019-03-28T06:50:23.144Z,76.40
2019-03-28T06:53:38.306Z,81.07
2019-03-28T06:56:52.636Z,78.77
2019-03-28T07:00:07.867Z,76.77
2019-03-28T07:03:22.115Z,94.77
2019-03-28T07:06:36.699Z,81.00
2019-03-28T07:09:51.123Z,84.63
2019-03-28T07:13:06.027Z,96.77
2019-03-28T07:16:21.229Z,83.73
2019-03-28T07:19:35.724Z,100.03
2019-03-28T07:22:50.050Z,98.53
2019-03-28T07:26:04.191Z,94.10
2019-03-28T07:29:18.801Z,111.80
2019-03-28T07:32:32.841Z,96.57
2019-03-28T07:35:47.195Z,106.03
2019-03-28T07:39:01.359Z,97.10
2019-03-28T07:42:15.366Z,97.50
2019-03-28T07:45:29.866Z,94.00
2019-03-28T07:48:43.988Z,95.43
2019-03-28T07:51:58.116Z,78.00
2019-03-28T07:55:12.360Z,89.07
2019-03-28T07:58:26.514Z,82.17
2019-03-28T08:01:41.133Z,74.97
2019-03-28T08:04:55.239Z,53.47
2019-03-28T08:08:09.274Z,54.17
2019-03-28T08:11:24.290Z,52.83
2019-03-28T08:14:38.915Z,54.60
2019-03-28T08:17:53.121Z,53.67
2019-03-28T08:21:07.524Z,53.03
2019-03-28T08:24:21.550Z,56.93
2019-03-28T08:27:35.795Z,51.07
2019-03-28T08:30:49.969Z,51.83
2019-03-28T08:34:04.536Z,45.00
2019-03-28T08:37:18.697Z,39.53
2019-03-28T08:40:34.985Z,46.40
2019-03-28T08:43:49.234Z,79.33
2019-03-28T08:47:06.088Z,43.47
2019-03-28T08:50:19.525Z,39.67
2019-03-28T08:53:34.016Z,36.63
2019-03-28T08:56:48.030Z,41.20
2019-03-28T09:00:02.645Z,41.83
2019-03-28T09:03:16.787Z,43.17
2019-03-28T09:06:31.089Z,39.23
2019-03-28T09:09:45.423Z,38.73
2019-03-28T09:12:59.443Z,39.77
2019-03-28T09:16:13.652Z,39.17
2019-03-28T09:19:27.706Z,37.53
2019-03-28T09:22:41.725Z,38.70
2019-03-28T09:25:55.928Z,42.37
2019-03-28T09:29:10.388Z,40.47
2019-03-28T09:32:24.919Z,37.27
2019-03-28T09:35:39.735Z,96.30
2019-03-28T09:38:54.270Z,46.93
2019-03-28T09:42:08.543Z,36.60
2019-03-28T09:45:23.577Z,36.70
2019-03-28T09:48:37.609Z,35.77
2019-03-28T09:51:51.692Z,40.43
2019-03-28T09:55:27.030Z,34.80
2019-03-28T09:58:41.486Z,35.67
2019-03-28T10:01:55.790Z,38.27
2019-03-28T10:05:10.106Z,22.97
2019-03-28T10:08:24.147Z,22.33
2019-03-28T10:11:38.807Z,24.27
2019-03-28T10:14:53.435Z,25.87
2019-03-28T10:18:08.491Z,23.83
2019-03-28T10:21:22.653Z,22.83
2019-03-28T10:24:36.694Z,25.57
2019-03-28T10:27:51.145Z,23.33
2019-03-28T10:31:15.898Z,22.40
2019-03-28T10:34:21.750Z,21.90
2019-03-28T10:37:36.323Z,23.37
2019-03-28T10:40:50.410Z,23.30
2019-03-28T10:44:04.933Z,22.60
2019-03-28T10:47:19.880Z,21.80
2019-03-28T10:50:41.480Z,24.03
2019-03-28T10:53:50.502Z,28.20
2019-03-28T10:57:13.518Z,23.90
2019-03-28T11:00:24.372Z,20.67
2019-03-28T11:03:38.015Z,26.07
2019-03-28T11:06:52.408Z,21.57
2019-03-28T11:10:07.250Z,23.93
2019-03-28T11:13:21.523Z,22.83
2019-03-28T11:16:35.668Z,17.63
2019-03-28T11:19:50.106Z,15.73
2019-03-28T11:23:04.691Z,18.63
2019-03-28T11:26:18.769Z,16.47
2019-03-28T11:29:33.841Z,15.07
2019-03-28T11:32:48.431Z,14.40
2019-03-28T11:36:03.098Z,16.60
2019-03-28T11:39:18.156Z,15.70
2019-03-28T11:42:32.634Z,18.07
2019-03-28T11:45:46.931Z,18.37
2019-03-28T11:49:00.964Z,16.47
2019-03-28T11:52:15.233Z,18.53
2019-03-28T11:55:29.383Z,19.10
2019-03-28T11:58:44.047Z,22.20
2019-03-28T12:02:00.506Z,19.73
2019-03-28T12:05:14.711Z,16.70
2019-03-28T12:08:29.542Z,16.83
2019-03-28T12:11:43.709Z,12.70
2019-03-28T12:14:58.184Z,12.27
2019-03-28T12:18:13.373Z,13.63
2019-03-28T12:21:29.050Z,8.60
2019-03-28T12:24:43.432Z,8.00
2019-03-28T12:28:00.276Z,8.90
2019-03-28T12:31:14.083Z,10.40
2019-03-28T12:34:28.698Z,10.17
2019-03-28T12:37:43.202Z,9.07
2019-03-28T12:40:57.489Z,9.97
2019-03-28T12:44:11.767Z,8.47
2019-03-28T12:47:25.997Z,9.57
2019-03-28T12:50:40.165Z,8.80
2019-03-28T12:53:54.626Z,6.83
2019-03-28T12:57:08.849Z,5.33
2019-03-28T13:00:36.484Z,8.67
2019-03-28T13:03:50.816Z,7.00
2019-03-28T13:07:05.095Z,6.27
2019-03-28T13:10:19.662Z,7.73
2019-03-28T13:13:33.975Z,8.10
2019-03-28T13:16:48.193Z,6.67
2019-03-28T13:20:02.754Z,7.47
2019-03-28T13:23:16.929Z,6.33
2019-03-28T13:26:31.260Z,8.00
2019-03-28T13:29:45.443Z,11.20
2019-03-28T13:33:00.861Z,8.83
2019-03-28T13:36:15.291Z,10.60
2019-03-28T13:39:29.663Z,10.50
2019-03-28T13:42:44.113Z,11.23
2019-03-28T13:45:58.282Z,12.63
2019-03-28T13:49:12.539Z,11.23
2019-03-28T13:52:26.996Z,9.90
2019-03-28T13:55:41.152Z,8.87
2019-03-28T13:58:56.210Z,9.77
2019-03-28T14:02:10.656Z,11.00
2019-03-28T14:05:25.398Z,9.30
2019-03-28T14:08:39.989Z,10.40
2019-03-28T14:11:54.422Z,10.33
2019-03-28T14:15:09.013Z,10.77
2019-03-28T14:18:23.772Z,11.13
2019-03-28T14:21:38.203Z,10.87
2019-03-28T14:24:52.569Z,11.90
2019-03-28T14:28:06.758Z,12.10
2019-03-28T14:31:21.235Z,11.43
2019-03-28T14:34:35.549Z,14.63
2019-03-28T14:37:50.548Z,11.83
2019-03-28T14:41:04.713Z,17.30
2019-03-28T14:44:19.093Z,11.00
2019-03-28T14:47:33.503Z,11.63
2019-03-28T14:50:47.579Z,14.23
2019-03-28T14:54:01.757Z,11.23
2019-03-28T14:57:16.740Z,10.70
2019-03-28T15:00:48.397Z,10.73
2019-03-28T15:04:02.910Z,12.10
2019-03-28T15:07:16.938Z,10.90
2019-03-28T15:10:31.192Z,11.07
2019-03-28T15:13:45.718Z,13.90
2019-03-28T15:16:59.862Z,11.80
2019-03-28T15:20:14.100Z,9.77
2019-03-28T15:23:28.260Z,13.70
2019-03-28T15:26:42.621Z,9.13
2019-03-28T15:29:57.276Z,8.53
2019-03-28T15:33:11.838Z,9.07
2019-03-28T15:36:27.349Z,8.40
2019-03-28T15:39:41.547Z,8.67
2019-03-28T15:42:55.930Z,6.63
2019-03-28T15:46:10.576Z,6.23
2019-03-28T15:49:25.671Z,62.20
2019-03-28T15:52:39.808Z,266.97
2019-03-28T15:55:54.232Z,96.80
2019-03-28T15:59:08.768Z,197.23
2019-03-28T16:02:22.920Z,36.77
2019-03-28T16:05:37.673Z,26.40
2019-03-28T16:08:53.566Z,5.13
2019-03-28T16:12:07.887Z,41.40
2019-03-28T16:15:22.671Z,181.70
2019-03-28T16:18:36.714Z,43.17
2019-03-28T16:21:51.289Z,6.63
2019-03-28T16:25:05.948Z,4.50
2019-03-28T16:28:20.092Z,3.60
2019-03-28T16:31:34.411Z,6.23
2019-03-28T16:34:48.566Z,184.43
2019-03-28T16:38:03.387Z,7.53
2019-03-28T16:41:17.875Z,23.20
2019-03-28T16:44:31.938Z,10.73
2019-03-28T16:47:46.080Z,4.73
2019-03-28T16:51:00.304Z,9.13
2019-03-28T16:54:15.156Z,6.60
2019-03-28T16:57:29.534Z,14.30
2019-03-28T17:00:44.108Z,6.97
2019-03-28T17:03:58.151Z,6.30
2019-03-28T17:07:13.515Z,7.23
2019-03-28T17:10:46.249Z,7.73
2019-03-28T17:14:00.665Z,10.77
2019-03-28T17:17:14.711Z,12.37
2019-03-28T17:20:28.885Z,10.47
2019-03-28T17:23:43.445Z,9.90
2019-03-28T17:26:57.621Z,12.50
2019-03-28T17:30:12.275Z,7.70
2019-03-28T17:33:26.267Z,19.50
2019-03-28T17:36:40.281Z,12.23
2019-03-28T17:39:54.292Z,23.20
2019-03-28T17:43:08.462Z,8.67
2019-03-28T17:46:22.479Z,82.47
2019-03-28T17:49:36.571Z,58.10
2019-03-28T17:52:50.707Z,175.30
2019-03-28T17:56:04.931Z,322.87
2019-03-28T17:59:19.060Z,311.63
2019-03-28T18:02:33.768Z,107.80
2019-03-28T18:05:58.043Z,128.43
2019-03-28T18:09:06.382Z,308.27
2019-03-28T18:12:21.424Z,1077.20
2019-03-28T18:15:35.940Z,326.60
2019-03-28T18:18:50.073Z,406.13
2019-03-28T18:22:04.328Z,630.93
2019-03-28T18:25:18.568Z,149.10
2019-03-28T18:28:32.730Z,14.70
2019-03-28T18:31:50.839Z,10.90
2019-03-28T18:35:05.612Z,8.03
2019-03-28T18:38:19.616Z,6.80
2019-03-28T18:41:34.183Z,4.97
2019-03-28T18:44:48.555Z,6.13
2019-03-28T18:48:02.813Z,7.53
2019-03-28T18:51:16.867Z,6.67
2019-03-28T18:54:31.090Z,7.03
2019-03-28T18:57:45.347Z,10.03
2019-03-28T19:00:59.816Z,6.53
2019-03-28T19:04:14.172Z,14.50
2019-03-28T19:07:28.672Z,72.33
2019-03-28T19:10:42.992Z,15.27
2019-03-28T19:13:57.045Z,13.10
2019-03-28T19:17:11.186Z,53.23
2019-03-28T19:20:25.631Z,56.23
2019-03-28T19:23:39.667Z,49.97
2019-03-28T19:26:53.693Z,32.80
2019-03-28T19:30:08.984Z,26.37
2019-03-28T19:33:23.021Z,21.97
2019-03-28T19:36:37.599Z,15.37
2019-03-28T19:39:51.759Z,12.50
2019-03-28T19:43:19.221Z,10.40
2019-03-28T19:46:22.465Z,10.63
2019-03-28T19:49:36.676Z,9.60
2019-03-28T19:52:51.694Z,16.93
2019-03-28T19:56:05.741Z,12.53
2019-03-28T19:59:19.884Z,9.57
2019-03-28T20:02:34.053Z,10.13
2019-03-28T20:05:49.362Z,9.47
2019-03-28T20:09:16.074Z,8.03
2019-03-28T20:12:21.887Z,8.00
2019-03-28T20:15:36.153Z,8.13
2019-03-28T20:18:50.316Z,26.73
2019-03-28T20:22:04.660Z,17.83
2019-03-28T20:25:19.503Z,10.77
2019-03-28T20:28:33.771Z,9.20
2019-03-28T20:31:48.094Z,6.53
2019-03-28T20:35:02.548Z,9.27
2019-03-28T20:38:16.569Z,11.27
2019-03-28T20:41:30.582Z,11.63
2019-03-28T20:44:45.050Z,11.47
2019-03-28T20:47:59.359Z,11.30
2019-03-28T20:51:13.373Z,12.87
2019-03-28T20:54:27.776Z,13.00
2019-03-28T20:57:42.013Z,6.63
2019-03-28T21:00:56.435Z,7.87
2019-03-28T21:04:10.547Z,8.37
2019-03-28T21:07:25.144Z,7.90
2019-03-28T21:10:39.555Z,6.53
2019-03-28T21:13:53.929Z,10.03
2019-03-28T21:17:08.118Z,6.50
2019-03-28T21:20:22.516Z,7.97
2019-03-28T21:23:36.531Z,10.03
2019-03-28T21:26:50.656Z,9.23
2019-03-28T21:30:05.622Z,8.40
2019-03-28T21:33:19.643Z,8.43
2019-03-28T21:36:33.995Z,6.77
2019-03-28T21:39:48.256Z,9.33
2019-03-28T21:43:02.397Z,6.43
2019-03-28T21:46:16.517Z,9.27
2019-03-28T21:49:30.636Z,11.03
2019-03-28T21:52:44.772Z,12.67
2019-03-28T21:55:59.118Z,13.00
2019-03-28T21:59:13.508Z,12.93
2019-03-28T22:02:27.629Z,12.50
2019-03-28T22:05:41.748Z,15.07
2019-03-28T22:08:55.772Z,10.70
2019-03-28T22:12:09.945Z,10.67
2019-03-28T22:15:23.938Z,13.67
2019-03-28T22:18:37.955Z,11.40
2019-03-28T22:21:51.992Z,13.27
2019-03-28T22:25:06.629Z,13.53
2019-03-28T22:28:21.098Z,14.97
2019-03-28T22:31:35.236Z,13.27
2019-03-28T22:34:49.596Z,12.27
2019-03-28T22:38:03.822Z,10.47
2019-03-28T22:41:17.824Z,10.97
2019-03-28T22:44:33.853Z,10.50
2019-03-28T22:47:48.273Z,11.37
2019-03-28T22:51:02.668Z,14.40
2019-03-28T22:54:16.684Z,14.03
2019-03-28T22:57:30.736Z,22.27
2019-03-28T23:00:46.691Z,19.53
2019-03-28T23:04:00.723Z,15.57
2019-03-28T23:07:14.847Z,13.13
2019-03-28T23:10:28.966Z,24.13
2019-03-28T23:13:42.991Z,26.53
2019-03-28T23:16:57.191Z,22.23
2019-03-28T23:20:11.821Z,21.73
2019-03-28T23:23:26.189Z,17.70
2019-03-28T23:26:40.355Z,12.90
2019-03-28T23:29:54.372Z,12.33
2019-03-28T23:33:08.846Z,15.60
2019-03-28T23:36:22.844Z,16.30
2019-03-28T23:39:37.727Z,15.37
2019-03-28T23:42:52.210Z,11.90
2019-03-28T23:46:06.515Z,11.83
2019-03-28T23:49:20.640Z,17.33
2019-03-28T23:52:34.784Z,16.17
2019-03-28T23:55:48.784Z,15.43
2019-03-28T23:59:03.052Z,12.73
